Etusivu
METAR-TAF:

METAR-TAF

Lentoasemat :

Charlotte, Michigan, Yhdysvallat

Leveyspiiri: 42-34-28N, Pituuspiiri: 084-48-41W, korkeus merenpinnasta: 271 m

Tämänhetkinen sää

Tämä raportti tehtiin 19 minuuttia sitten, kello 17.16 UTC
Tuuli 10 kn lännestä puuskistuen 16 kn:hen
Lämpötila 5°C
Kosteus 75%
Ilmanpaine 1016 hPa
Näkyvyys: 16.1 km
Hajonneita pilviä 2100 ft:n korkeudessa
Pilvistä 2900 ft:n korkeudessa

METAR: KFPK 301716Z AUTO 28010G16KT 10SM BKN021 OVC029 05/01 A3001 RMK AO2 T00530012

Aika: 13:35 (17:35 UTC)


TAF: puuttuu

Säähavainnot ja -ennusteet yli 4000 lentoasemalta (METAR- ja TAF-raportit).

Käytössä olevat sääasemat on merkitty karttaan keltaisilla ja punaisilla pisteillä.

Aseta hiiri pisteen päälle nähdäksesi sääaseman nimen.

Klikkaa sitten nähdäksesi säähavainnot ja -ennusteet.

Kartan vaihtaminen: klikkaa mustalla rastilla varustettuja vihreitä pisteitä, niin voit zoomata sisään; viivalla varustettua vihreää pistettä, niin voit zoomata ulos tai vihreitä nuolia, niin pääset viereisille kartoille.


METAR-TAF: